»·PEaware :: N2442P KWJF-KFAT

N2442P :: KWJF-KFAT

FLIGHT INFORMATION

Flight Status: Arrived
Operator: Privately registered:
United States
More flights under this callsign
Pilot: Ken Q. (14290)
Aircraft: MOONEY M-20K/M ENCORE BRAVO
(M20T)
More flights by this aircraft type
Origin: KWJF Gen Fox
United States
Destination: KFAT Fresno Yosemite Intl
United States
More flights between these airports :: More routes between these airports
Route: EHF VIS
File this flight plan on PilotEdge
Remarks:
Altitude:
(Current/Filed)
10,500ft
Speed:
(Current/Filed)
175kts
Departed: 03-Jan-22 02:32 PM
Arrived: 03-Jan-22 03:29 PM
Distance/Time
Traveled:
0nm/0:57
Distance/Time
To Go:
Arrived

Flight Plot

Page will automatically refresh every two minutes.

Flight plan parsing failed; only flown route is shown


Map Options




Map Legend


Flown Route
Filed Route
Departure Airport
Arrival Airport
Navaid (VOR, NDB)
Fix

Horizontal Profiles

Position Reports

Time Latitude Longitude Heading Altitude Ground
Speed
03-Jan-22 14:13 34.739197 -118.216650 161 2351ft 0kts
03-Jan-22 14:14 34.739197 -118.216650 161 2351ft 0kts
03-Jan-22 14:15 34.739197 -118.216650 161 2351ft 0kts
03-Jan-22 14:16 34.739197 -118.216650 161 2351ft 0kts
03-Jan-22 14:17 34.739197 -118.216650 161 2351ft 0kts
03-Jan-22 14:18 34.739197 -118.216650 161 2351ft 0kts
03-Jan-22 14:19 34.739197 -118.216650 161 2351ft 0kts
03-Jan-22 14:20 34.739197 -118.216650 161 2351ft 0kts
03-Jan-22 14:21 34.739197 -118.216650 161 2351ft 0kts
03-Jan-22 14:22 34.739196 -118.216650 161 2351ft 0kts
03-Jan-22 14:23 34.739196 -118.216650 161 2351ft 0kts
03-Jan-22 14:24 34.739177 -118.216598 72 2351ft 1kts
03-Jan-22 14:25 34.740642 -118.216374 39 2351ft 6kts
03-Jan-22 14:26 34.741627 -118.212860 72 2351ft 19kts
03-Jan-22 14:27 34.742858 -118.207234 50 2351ft 0kts
03-Jan-22 14:28 34.742863 -118.207227 50 2351ft 0kts
03-Jan-22 14:29 34.743367 -118.207111 337 2351ft 0kts
03-Jan-22 14:30 34.743572 -118.207199 341 2351ft 11kts
03-Jan-22 14:31 34.740841 -118.219369 253 2393ft 100kts
03-Jan-22 14:32 34.747155 -118.250061 332 3216ft 121kts
03-Jan-22 14:33 34.775531 -118.278808 307 3906ft 145kts
03-Jan-22 14:34 34.805255 -118.314185 317 4565ft 152kts
03-Jan-22 14:35 34.834921 -118.346895 317 5536ft 136kts
03-Jan-22 14:36 34.861422 -118.377112 311 6504ft 124kts
03-Jan-22 14:37 34.884635 -118.405506 311 7457ft 109kts
03-Jan-22 14:38 34.905628 -118.430184 311 8222ft 105kts
03-Jan-22 14:39 34.927486 -118.457584 307 8775ft 119kts
03-Jan-22 14:40 34.950183 -118.489535 303 9270ft 131kts
03-Jan-22 14:41 34.973630 -118.526009 303 9689ft 140kts
03-Jan-22 14:42 35.002473 -118.559697 314 10107ft 146kts
03-Jan-22 14:43 35.035160 -118.591664 320 10445ft 155kts
03-Jan-22 14:44 35.073256 -118.621438 321 10479ft 169kts
03-Jan-22 14:45 35.111811 -118.655663 317 10472ft 172kts
03-Jan-22 14:46 35.149352 -118.691807 311 10473ft 170kts
03-Jan-22 14:47 35.182789 -118.732884 309 10480ft 170kts
03-Jan-22 14:48 35.212306 -118.772050 307 10479ft 171kts
03-Jan-22 14:49 35.244316 -118.814749 307 10483ft 170kts
03-Jan-22 14:50 35.276345 -118.857420 307 10488ft 170kts
03-Jan-22 14:51 35.305643 -118.896298 309 10491ft 170kts
03-Jan-22 14:52 35.340166 -118.936483 311 10499ft 172kts
03-Jan-22 14:53 35.375538 -118.977296 311 10495ft 173kts
03-Jan-22 14:54 35.410480 -119.017516 311 10497ft 172kts
03-Jan-22 14:55 35.445481 -119.057804 311 10497ft 172kts
03-Jan-22 14:56 35.483054 -119.093557 340 10500ft 179kts
03-Jan-22 14:57 35.530304 -119.113151 334 10501ft 178kts
03-Jan-22 14:58 35.577204 -119.133660 334 10504ft 179kts
03-Jan-22 14:59 35.623944 -119.154103 334 10512ft 179kts
03-Jan-22 15:00 35.671333 -119.174900 334 10518ft 181kts
03-Jan-22 15:01 35.719010 -119.195892 334 10515ft 181kts
03-Jan-22 15:02 35.766175 -119.216591 334 10517ft 179kts
03-Jan-22 15:03 35.813514 -119.236646 336 10517ft 180kts
03-Jan-22 15:04 35.861197 -119.255128 336 10518ft 179kts
03-Jan-22 15:05 35.909014 -119.273465 336 10520ft 179kts
03-Jan-22 15:06 35.956781 -119.291792 336 10523ft 179kts
03-Jan-22 15:07 36.004763 -119.310236 336 10499ft 180kts
03-Jan-22 15:08 36.052445 -119.329512 335 10504ft 180kts
03-Jan-22 15:09 36.099775 -119.349962 334 10508ft 180kts
03-Jan-22 15:10 36.146580 -119.372003 332 10507ft 179kts
03-Jan-22 15:11 36.192701 -119.395709 332 9990ft 181kts
03-Jan-22 15:12 36.239159 -119.421045 332 9373ft 184kts
03-Jan-22 15:13 36.285781 -119.447876 332 8789ft 182kts
03-Jan-22 15:14 36.330973 -119.474514 331 8264ft 180kts
03-Jan-22 15:15 36.376090 -119.500676 333 7565ft 171kts
03-Jan-22 15:16 36.419051 -119.523366 336 6849ft 159kts
03-Jan-22 15:17 36.458469 -119.543514 336 6176ft 147kts
03-Jan-22 15:18 36.495718 -119.562852 335 5584ft 140kts
03-Jan-22 15:20 36.530835 -119.581147 335 5054ft 135kts
03-Jan-22 15:21 36.568540 -119.595017 348 4373ft 145kts
03-Jan-22 15:22 36.608960 -119.602638 350 3683ft 147kts
03-Jan-22 15:23 36.650240 -119.610143 351 2992ft 153kts
03-Jan-22 15:24 36.689305 -119.621398 339 2255ft 121kts
03-Jan-22 15:25 36.717042 -119.639341 327 1715ft 105kts
03-Jan-22 15:26 36.738963 -119.659428 318 1265ft 82kts
03-Jan-22 15:27 36.753618 -119.680223 303 920ft 81kts
03-Jan-22 15:28 36.766331 -119.702896 305 547ft 79kts
03-Jan-22 15:29 36.775626 -119.719422 305 339ft 14kts
03-Jan-22 15:30 36.774302 -119.719966 148 339ft 13kts
03-Jan-22 15:31 36.774028 -119.720836 306 339ft 14kts
03-Jan-22 15:32 36.776620 -119.725366 304 339ft 17kts
03-Jan-22 15:33 36.779443 -119.730375 303 339ft 16kts
03-Jan-22 15:34 36.779835 -119.731622 277 339ft 0kts
03-Jan-22 15:35 36.779836 -119.731622 277 339ft 0kts
03-Jan-22 15:36 34.739197 -118.216650 161 2351ft 0kts

Navigation Log

Ident Type
Flight plan parsing failed, navigation log unavailable